createdAt,value
2018-07-16T00:00:24.770Z,8.30
2018-07-16T00:02:53.435Z,8.20
2018-07-16T00:05:22.147Z,8.77
2018-07-16T00:07:51.038Z,9.03
2018-07-16T00:10:19.763Z,10.27
2018-07-16T00:12:48.508Z,11.33
2018-07-16T00:15:17.273Z,9.90
2018-07-16T00:17:45.958Z,9.20
2018-07-16T00:20:14.615Z,9.60
2018-07-16T00:22:43.350Z,9.30
2018-07-16T00:25:12.018Z,9.50
2018-07-16T00:27:40.701Z,9.23
2018-07-16T00:30:09.394Z,9.20
2018-07-16T00:32:38.112Z,8.70
2018-07-16T00:35:06.797Z,12.27
2018-07-16T00:37:35.651Z,8.90
2018-07-16T00:40:04.376Z,9.03
2018-07-16T00:42:33.213Z,9.17
2018-07-16T00:45:01.919Z,9.23
2018-07-16T00:47:30.603Z,9.90
2018-07-16T00:49:59.304Z,8.20
2018-07-16T00:52:27.970Z,9.70
2018-07-16T00:54:56.632Z,9.30
2018-07-16T00:57:25.362Z,9.90
2018-07-16T00:59:54.139Z,10.63
2018-07-16T01:02:22.751Z,9.47
2018-07-16T01:04:51.463Z,9.27
2018-07-16T01:07:20.144Z,9.60
2018-07-16T01:09:48.955Z,10.60
2018-07-16T01:12:17.639Z,10.23
2018-07-16T01:14:46.483Z,9.67
2018-07-16T01:17:15.132Z,10.40
2018-07-16T01:19:43.829Z,10.83
2018-07-16T01:22:12.455Z,8.77
2018-07-16T01:24:41.194Z,10.03
2018-07-16T01:27:09.918Z,11.13
2018-07-16T01:29:39.877Z,11.53
2018-07-16T01:32:09.130Z,10.77
2018-07-16T01:34:38.360Z,10.83
2018-07-16T01:37:07.081Z,11.77
2018-07-16T01:39:35.753Z,11.27
2018-07-16T01:42:04.473Z,10.97
2018-07-16T01:44:33.126Z,11.60
2018-07-16T01:47:01.791Z,12.60
2018-07-16T01:49:30.435Z,13.10
2018-07-16T01:51:59.484Z,13.73
2018-07-16T01:54:28.193Z,12.60
2018-07-16T01:56:56.945Z,11.80
2018-07-16T01:59:26.078Z,13.70
2018-07-16T02:01:54.766Z,13.67
2018-07-16T02:04:23.429Z,12.67
2018-07-16T02:06:52.310Z,13.70
2018-07-16T02:09:21.004Z,13.03
2018-07-16T02:11:50.276Z,15.37
2018-07-16T02:14:18.931Z,16.40
2018-07-16T02:16:47.749Z,14.03
2018-07-16T02:19:16.472Z,16.20
2018-07-16T02:21:45.155Z,16.93
2018-07-16T02:24:13.997Z,16.23
2018-07-16T02:26:42.680Z,16.23
2018-07-16T02:29:12.381Z,18.30
2018-07-16T02:31:41.050Z,18.63
2018-07-16T02:34:09.761Z,16.63
2018-07-16T02:36:38.469Z,18.47
2018-07-16T02:39:07.175Z,17.00
2018-07-16T02:41:35.906Z,16.03
2018-07-16T02:44:04.583Z,16.80
2018-07-16T02:46:33.774Z,18.20
2018-07-16T02:49:02.468Z,17.63
2018-07-16T02:51:31.104Z,17.67
2018-07-16T02:53:59.813Z,17.07
2018-07-16T02:56:28.555Z,15.17
2018-07-16T02:58:57.141Z,13.90
2018-07-16T03:01:25.882Z,15.73
2018-07-16T03:03:54.634Z,10.90
2018-07-16T03:06:23.598Z,11.50
2018-07-16T03:08:52.518Z,11.27
2018-07-16T03:11:21.176Z,11.70
2018-07-16T03:13:50.303Z,12.40
2018-07-16T03:16:19.018Z,10.50
2018-07-16T03:18:47.705Z,10.63
2018-07-16T03:21:16.391Z,11.30
2018-07-16T03:23:45.092Z,10.70
2018-07-16T03:26:13.812Z,12.10
2018-07-16T03:28:42.769Z,11.90
2018-07-16T03:31:11.979Z,10.10
2018-07-16T03:33:40.608Z,12.07
2018-07-16T03:36:09.290Z,11.40
2018-07-16T03:38:37.950Z,10.57
2018-07-16T03:41:06.668Z,9.57
2018-07-16T03:43:35.351Z,9.33
2018-07-16T03:46:04.089Z,11.60
2018-07-16T03:48:32.823Z,10.37
2018-07-16T03:51:01.510Z,10.80
2018-07-16T03:53:30.216Z,9.50
2018-07-16T03:55:58.884Z,9.33
2018-07-16T03:58:27.595Z,11.03
2018-07-16T04:00:56.275Z,10.20
2018-07-16T04:03:25.033Z,13.00
2018-07-16T04:05:53.801Z,11.20
2018-07-16T04:08:22.487Z,11.53
2018-07-16T04:10:51.240Z,11.10
2018-07-16T04:13:19.908Z,10.90
2018-07-16T04:15:48.628Z,11.77
2018-07-16T04:18:19.464Z,11.83
2018-07-16T04:20:48.662Z,10.73
2018-07-16T04:23:17.718Z,10.83
2018-07-16T04:25:46.411Z,10.60
2018-07-16T04:28:15.099Z,11.67
2018-07-16T04:30:43.842Z,11.90
2018-07-16T04:33:12.518Z,12.03
2018-07-16T04:35:41.237Z,13.40
2018-07-16T04:38:09.957Z,15.00
2018-07-16T04:40:38.662Z,12.70
2018-07-16T04:43:07.356Z,14.20
2018-07-16T04:45:36.057Z,12.57
2018-07-16T04:48:04.746Z,13.97
2018-07-16T04:50:33.445Z,17.07
2018-07-16T04:53:02.113Z,19.50
2018-07-16T04:55:31.423Z,20.43
2018-07-16T04:58:00.126Z,18.10
2018-07-16T05:00:28.945Z,21.03
2018-07-16T05:02:57.680Z,19.60
2018-07-16T05:05:26.426Z,20.13
2018-07-16T05:07:55.176Z,18.57
2018-07-16T05:10:23.945Z,18.87
2018-07-16T05:12:52.680Z,17.33
2018-07-16T05:15:21.398Z,17.23
2018-07-16T05:17:50.073Z,18.00
2018-07-16T05:20:18.898Z,19.67
2018-07-16T05:22:47.579Z,17.40
2018-07-16T05:25:16.264Z,18.60
2018-07-16T05:27:44.948Z,16.70
2018-07-16T05:30:13.666Z,17.50
2018-07-16T05:32:45.378Z,18.27
2018-07-16T05:35:13.998Z,17.37
2018-07-16T05:37:42.705Z,16.83
2018-07-16T05:40:11.444Z,16.77
2018-07-16T05:42:40.162Z,16.37
2018-07-16T05:45:08.862Z,16.53
2018-07-16T05:47:37.553Z,14.87
2018-07-16T05:50:06.300Z,13.50
2018-07-16T05:52:34.984Z,14.20
2018-07-16T05:55:03.792Z,15.90
2018-07-16T05:57:32.460Z,14.97
2018-07-16T06:00:01.289Z,14.23
2018-07-16T06:02:30.025Z,14.23
2018-07-16T06:04:58.708Z,14.73
2018-07-16T06:07:27.428Z,14.77
2018-07-16T06:09:56.145Z,13.47
2018-07-16T06:12:24.901Z,13.07
2018-07-16T06:14:53.694Z,14.27
2018-07-16T06:17:22.569Z,13.93
2018-07-16T06:19:51.256Z,12.53
2018-07-16T06:22:20.043Z,13.30
2018-07-16T06:24:48.719Z,13.93
2018-07-16T06:27:17.428Z,14.23
2018-07-16T06:29:46.268Z,14.93
2018-07-16T06:32:15.037Z,14.63
2018-07-16T06:34:43.796Z,13.93
2018-07-16T06:37:12.457Z,19.23
2018-07-16T06:39:41.159Z,15.33
2018-07-16T06:42:09.944Z,16.37
2018-07-16T06:44:38.816Z,13.20
2018-07-16T06:47:07.529Z,12.27
2018-07-16T06:49:36.666Z,12.50
2018-07-16T06:52:05.383Z,12.57
2018-07-16T06:54:34.172Z,12.27
2018-07-16T06:57:02.989Z,12.53
2018-07-16T06:59:31.749Z,11.83
2018-07-16T07:02:00.440Z,11.20
2018-07-16T07:04:30.064Z,12.17
2018-07-16T07:06:58.734Z,11.77
2018-07-16T07:09:27.421Z,10.97
2018-07-16T07:11:56.165Z,10.10
2018-07-16T07:14:25.120Z,10.37
2018-07-16T07:16:54.382Z,10.27
2018-07-16T07:19:23.170Z,10.67
2018-07-16T07:21:52.126Z,10.13
2018-07-16T07:24:20.947Z,10.00
2018-07-16T07:26:49.660Z,10.40
2018-07-16T07:29:18.447Z,10.70
2018-07-16T07:31:47.800Z,9.43
2018-07-16T07:34:16.534Z,10.33
2018-07-16T07:36:45.383Z,10.50
2018-07-16T07:39:14.096Z,9.60
2018-07-16T07:41:42.902Z,10.20
2018-07-16T07:44:11.613Z,9.27
2018-07-16T07:46:40.325Z,11.47
2018-07-16T07:49:09.116Z,10.13
2018-07-16T07:51:37.983Z,9.77
2018-07-16T07:54:07.144Z,10.13
2018-07-16T07:56:35.936Z,10.33
2018-07-16T07:59:04.877Z,10.60
2018-07-16T08:01:37.466Z,10.67
2018-07-16T08:04:06.271Z,10.90
2018-07-16T08:06:35.157Z,11.90
2018-07-16T08:09:06.885Z,11.13
2018-07-16T08:11:35.634Z,12.60
2018-07-16T08:14:04.364Z,11.90
2018-07-16T08:16:33.115Z,11.00
2018-07-16T08:19:01.790Z,11.63
2018-07-16T08:21:30.499Z,11.17
2018-07-16T08:23:59.694Z,12.57
2018-07-16T08:26:28.702Z,14.17
2018-07-16T08:28:57.600Z,11.47
2018-07-16T08:31:26.405Z,10.57
2018-07-16T08:33:55.133Z,11.90
2018-07-16T08:36:23.840Z,11.20
2018-07-16T08:38:52.612Z,10.23
2018-07-16T08:41:21.507Z,10.00
2018-07-16T08:43:50.230Z,9.87
2018-07-16T08:46:19.214Z,12.20
2018-07-16T08:48:47.870Z,10.00
2018-07-16T08:51:16.617Z,10.33
2018-07-16T08:53:45.401Z,11.03
2018-07-16T08:56:14.989Z,10.53
2018-07-16T08:58:43.788Z,11.20
2018-07-16T09:01:12.461Z,12.57
2018-07-16T09:03:41.256Z,9.10
2018-07-16T09:06:10.025Z,9.57
2018-07-16T09:08:38.693Z,9.63
2018-07-16T09:11:07.901Z,11.00
2018-07-16T09:13:37.164Z,9.57
2018-07-16T09:16:05.768Z,11.00
2018-07-16T09:18:34.468Z,9.43
2018-07-16T09:21:03.146Z,9.60
2018-07-16T09:23:31.868Z,8.20
2018-07-16T09:26:00.555Z,8.90
2018-07-16T09:28:29.244Z,9.67
2018-07-16T09:30:57.913Z,9.33
2018-07-16T09:33:26.617Z,9.67
2018-07-16T09:35:55.975Z,9.87
2018-07-16T09:38:24.712Z,8.80
2018-07-16T09:40:53.466Z,10.07
2018-07-16T09:43:22.206Z,9.70
2018-07-16T09:45:50.935Z,9.60
2018-07-16T09:48:19.685Z,9.57
2018-07-16T09:50:48.469Z,8.80
2018-07-16T09:53:17.255Z,8.60
2018-07-16T09:55:45.893Z,9.23
2018-07-16T09:58:14.584Z,8.83
2018-07-16T10:00:48.913Z,9.30
2018-07-16T10:03:17.657Z,12.93
2018-07-16T10:05:46.373Z,9.40
2018-07-16T10:08:15.148Z,8.67
2018-07-16T10:10:43.957Z,9.77
2018-07-16T10:13:12.685Z,9.50
2018-07-16T10:15:41.526Z,8.20
2018-07-16T10:18:10.253Z,9.13
2018-07-16T10:20:39.002Z,9.53
2018-07-16T10:23:07.684Z,9.33
2018-07-16T10:25:36.399Z,9.27
2018-07-16T10:28:05.158Z,9.03
2018-07-16T10:30:33.905Z,10.03
2018-07-16T10:33:02.625Z,9.73
2018-07-16T10:35:31.337Z,9.70
2018-07-16T10:38:00.157Z,9.60
2018-07-16T10:40:28.938Z,9.23
2018-07-16T10:42:57.670Z,8.53
2018-07-16T10:45:26.418Z,9.10
2018-07-16T10:47:55.112Z,10.70
2018-07-16T10:50:23.762Z,10.03
2018-07-16T10:52:52.487Z,10.83
2018-07-16T10:55:21.326Z,9.83
2018-07-16T10:57:49.944Z,10.60
2018-07-16T11:00:18.640Z,9.80
2018-07-16T11:02:47.406Z,11.67
2018-07-16T11:05:16.146Z,10.27
2018-07-16T11:07:44.966Z,10.43
2018-07-16T11:10:13.700Z,14.37
2018-07-16T11:12:42.415Z,14.47
2018-07-16T11:15:11.134Z,10.20
2018-07-16T11:17:40.898Z,15.37
2018-07-16T11:20:09.977Z,12.50
2018-07-16T11:22:39.466Z,9.87
2018-07-16T11:25:08.690Z,11.17
2018-07-16T11:27:37.970Z,10.83
2018-07-16T11:30:07.588Z,11.87
2018-07-16T11:32:37.285Z,10.97
2018-07-16T11:35:06.461Z,10.33
2018-07-16T11:37:35.249Z,13.33
2018-07-16T11:40:04.139Z,11.17
2018-07-16T11:42:33.299Z,11.30
2018-07-16T11:45:02.276Z,11.97
2018-07-16T11:47:31.014Z,11.33
2018-07-16T11:49:59.775Z,10.30
2018-07-16T11:52:28.878Z,10.70
2018-07-16T11:54:57.709Z,12.57
2018-07-16T11:57:26.523Z,11.13
2018-07-16T11:59:55.214Z,9.70
2018-07-16T12:02:23.992Z,10.10
2018-07-16T12:04:52.780Z,10.50
2018-07-16T12:07:21.485Z,10.03
2018-07-16T12:09:50.229Z,9.93
2018-07-16T12:12:19.042Z,9.30
2018-07-16T12:14:48.452Z,10.27
2018-07-16T12:17:17.157Z,9.77
2018-07-16T12:19:46.504Z,10.43
2018-07-16T12:22:15.350Z,10.17
2018-07-16T12:24:44.217Z,9.10
2018-07-16T12:27:13.033Z,12.80
2018-07-16T12:29:41.825Z,10.30
2018-07-16T12:32:10.689Z,9.47
2018-07-16T12:34:39.437Z,8.90
2018-07-16T12:37:08.184Z,9.67
2018-07-16T12:39:38.079Z,9.60
2018-07-16T12:42:06.785Z,8.57
2018-07-16T12:44:35.543Z,11.03
2018-07-16T12:47:04.465Z,9.03
2018-07-16T12:49:33.254Z,9.70
2018-07-16T12:52:02.105Z,8.87
2018-07-16T12:54:30.951Z,10.77
2018-07-16T12:56:59.712Z,10.50
2018-07-16T12:59:28.587Z,11.97
2018-07-16T13:01:57.282Z,9.47
2018-07-16T13:04:26.678Z,11.27
2018-07-16T13:06:55.442Z,9.37
2018-07-16T13:09:24.242Z,9.83
2018-07-16T13:11:53.080Z,9.33
2018-07-16T13:14:22.029Z,9.57
2018-07-16T13:16:50.981Z,10.40
2018-07-16T13:19:19.858Z,13.43
2018-07-16T13:21:48.717Z,22.30
2018-07-16T13:24:17.501Z,20.17
2018-07-16T13:26:46.249Z,17.77
2018-07-16T13:29:15.059Z,20.40
2018-07-16T13:31:43.952Z,23.60
2018-07-16T13:34:12.733Z,21.67
2018-07-16T13:36:42.553Z,27.60
2018-07-16T13:39:11.716Z,27.13
2018-07-16T13:41:40.590Z,26.90
2018-07-16T13:44:09.354Z,20.17
2018-07-16T13:46:38.396Z,21.80
2018-07-16T13:49:07.641Z,20.90
2018-07-16T13:51:36.660Z,15.70
2018-07-16T13:54:05.779Z,14.67
2018-07-16T13:56:34.627Z,12.67
2018-07-16T13:59:03.330Z,14.73
2018-07-16T14:01:32.394Z,11.77
2018-07-16T14:04:01.272Z,10.07
2018-07-16T14:06:30.048Z,13.00
2018-07-16T14:08:58.814Z,9.60
2018-07-16T14:11:27.576Z,10.67
2018-07-16T14:13:57.029Z,10.70
2018-07-16T14:16:25.871Z,11.47
2018-07-16T14:18:54.685Z,23.10
2018-07-16T14:21:23.555Z,28.83
2018-07-16T14:23:52.404Z,22.37
2018-07-16T14:26:21.156Z,15.13
2018-07-16T14:28:49.988Z,29.07
2018-07-16T14:31:18.829Z,21.80
2018-07-16T14:33:47.618Z,35.17
2018-07-16T14:36:16.386Z,21.00
2018-07-16T14:38:45.233Z,31.33
2018-07-16T14:41:14.012Z,18.00
2018-07-16T14:43:42.804Z,14.83
2018-07-16T14:46:11.589Z,13.10
2018-07-16T14:48:40.468Z,15.90
2018-07-16T14:51:09.247Z,13.93
2018-07-16T14:53:38.175Z,11.93
2018-07-16T14:56:06.874Z,12.17
2018-07-16T14:58:35.660Z,10.93
2018-07-16T15:01:04.379Z,14.30
2018-07-16T15:03:33.257Z,12.43
2018-07-16T15:06:01.998Z,12.23
2018-07-16T15:08:31.004Z,11.13
2018-07-16T15:10:59.752Z,10.30
2018-07-16T15:13:28.655Z,10.50
2018-07-16T15:15:58.254Z,10.07
2018-07-16T15:18:27.220Z,10.27
2018-07-16T15:20:56.546Z,17.17
2018-07-16T15:23:24.960Z,13.77
2018-07-16T15:25:53.817Z,9.53
2018-07-16T15:28:23.008Z,9.73
2018-07-16T15:30:51.788Z,10.43
2018-07-16T15:33:20.816Z,8.47
2018-07-16T15:35:49.682Z,10.20
2018-07-16T15:38:18.504Z,10.47
2018-07-16T15:40:47.790Z,9.93
2018-07-16T15:43:16.560Z,10.23
2018-07-16T15:45:45.576Z,9.13
2018-07-16T15:48:14.505Z,9.60
2018-07-16T15:50:44.294Z,9.27
2018-07-16T15:53:13.290Z,14.30
2018-07-16T15:55:42.175Z,10.13
2018-07-16T15:58:11.166Z,12.43
2018-07-16T16:00:39.928Z,10.40
2018-07-16T16:03:08.659Z,9.73
2018-07-16T16:05:37.475Z,9.17
2018-07-16T16:08:06.177Z,9.70
2018-07-16T16:10:34.880Z,11.13
2018-07-16T16:13:04.096Z,9.60
2018-07-16T16:15:32.854Z,13.17
2018-07-16T16:18:01.877Z,16.90
2018-07-16T16:20:31.001Z,13.67
2018-07-16T16:22:59.803Z,10.53
2018-07-16T16:25:28.468Z,9.47
2018-07-16T16:27:57.193Z,10.03
2018-07-16T16:30:25.903Z,10.53
2018-07-16T16:32:54.678Z,9.73
2018-07-16T16:35:23.385Z,9.70
2018-07-16T16:37:52.121Z,11.40
2018-07-16T16:40:20.805Z,9.60
2018-07-16T16:42:49.508Z,8.60
2018-07-16T16:45:18.224Z,9.87
2018-07-16T16:47:46.967Z,14.27
2018-07-16T16:50:15.927Z,9.00
2018-07-16T16:52:44.771Z,11.40
2018-07-16T16:55:14.165Z,11.53
2018-07-16T16:57:42.905Z,15.57
2018-07-16T17:00:11.736Z,8.87
2018-07-16T17:02:40.465Z,10.67
2018-07-16T17:05:09.311Z,10.27
2018-07-16T17:07:38.045Z,11.53
2018-07-16T17:10:06.765Z,9.20
2018-07-16T17:12:35.774Z,11.00
2018-07-16T17:15:05.033Z,9.80
2018-07-16T17:17:34.957Z,9.23
2018-07-16T17:20:03.810Z,9.80
2018-07-16T17:22:32.643Z,11.33
2018-07-16T17:25:01.880Z,10.77
2018-07-16T17:27:30.598Z,12.10
2018-07-16T17:29:59.515Z,11.60
2018-07-16T17:32:28.289Z,9.17
2018-07-16T17:34:56.994Z,10.47
2018-07-16T17:37:26.022Z,15.47
2018-07-16T17:39:54.717Z,9.57
2018-07-16T17:42:23.945Z,10.30
2018-07-16T17:44:52.640Z,12.40
2018-07-16T17:47:22.364Z,10.43
2018-07-16T17:49:51.088Z,9.73
2018-07-16T17:52:19.923Z,10.23
2018-07-16T17:54:48.570Z,12.60
2018-07-16T17:57:17.241Z,13.40
2018-07-16T17:59:45.988Z,10.03
2018-07-16T18:02:15.171Z,11.93
2018-07-16T18:04:44.007Z,13.77
2018-07-16T18:07:16.961Z,13.27
2018-07-16T18:09:46.198Z,10.40
2018-07-16T18:12:15.025Z,11.77
2018-07-16T18:14:43.813Z,11.23
2018-07-16T18:17:12.521Z,10.00
2018-07-16T18:19:41.459Z,10.13
2018-07-16T18:22:10.161Z,10.10
2018-07-16T18:24:38.946Z,11.37
2018-07-16T18:27:08.844Z,10.37
2018-07-16T18:29:37.547Z,11.83
2018-07-16T18:32:06.712Z,12.33
2018-07-16T18:34:35.455Z,23.67
2018-07-16T18:37:04.336Z,45.03
2018-07-16T18:39:33.077Z,27.80
2018-07-16T18:42:02.821Z,23.07
2018-07-16T18:44:31.548Z,12.43
2018-07-16T18:47:00.298Z,93.83
2018-07-16T18:49:29.057Z,35.03
2018-07-16T18:51:57.940Z,36.60
2018-07-16T18:54:26.764Z,21.93
2018-07-16T18:56:55.859Z,18.80
2018-07-16T18:59:24.635Z,26.17
2018-07-16T19:01:53.764Z,21.10
2018-07-16T19:04:22.447Z,18.33
2018-07-16T19:06:51.548Z,16.90
2018-07-16T19:09:20.214Z,17.67
2018-07-16T19:11:49.064Z,19.67
2018-07-16T19:14:17.949Z,17.30
2018-07-16T19:16:46.880Z,15.43
2018-07-16T19:19:15.706Z,13.10
2018-07-16T19:21:44.444Z,13.83
2018-07-16T19:24:13.285Z,14.53
2018-07-16T19:26:42.105Z,14.43
2018-07-16T19:29:11.710Z,14.70
2018-07-16T19:31:40.549Z,13.30
2018-07-16T19:34:09.497Z,14.90
2018-07-16T19:36:38.461Z,15.70
2018-07-16T19:39:08.771Z,14.50
2018-07-16T19:41:37.519Z,15.17
2018-07-16T19:44:06.267Z,35.30
2018-07-16T19:46:35.089Z,22.20
2018-07-16T19:49:03.881Z,26.43
2018-07-16T19:51:32.766Z,29.77
2018-07-16T19:54:02.012Z,35.43
2018-07-16T19:56:30.774Z,32.10
2018-07-16T19:58:59.811Z,58.10
2018-07-16T20:01:28.523Z,107.90
2018-07-16T20:03:57.396Z,79.77
2018-07-16T20:06:26.349Z,33.50
2018-07-16T20:08:55.101Z,35.60
2018-07-16T20:11:24.390Z,30.67
2018-07-16T20:13:53.277Z,30.83
2018-07-16T20:16:22.136Z,28.73
2018-07-16T20:18:51.035Z,21.50
2018-07-16T20:21:19.899Z,21.97
2018-07-16T20:23:48.762Z,19.60
2018-07-16T20:26:19.231Z,17.77
2018-07-16T20:28:47.956Z,17.43
2018-07-16T20:31:17.618Z,16.20
2018-07-16T20:33:46.440Z,16.67
2018-07-16T20:36:16.790Z,15.37
2018-07-16T20:38:45.684Z,15.53
2018-07-16T20:41:14.591Z,17.30
2018-07-16T20:43:43.260Z,17.00
2018-07-16T20:46:12.043Z,15.73
2018-07-16T20:48:41.136Z,17.70
2018-07-16T20:51:10.348Z,20.20
2018-07-16T20:53:39.131Z,118.00
2018-07-16T20:56:08.278Z,163.23
2018-07-16T20:58:37.198Z,115.80
2018-07-16T21:01:05.980Z,132.60
2018-07-16T21:03:34.726Z,158.13
2018-07-16T21:06:04.007Z,119.90
2018-07-16T21:08:33.301Z,101.63
2018-07-16T21:11:02.258Z,48.93
2018-07-16T21:13:31.724Z,36.93
2018-07-16T21:16:00.837Z,33.70
2018-07-16T21:18:30.399Z,22.50
2018-07-16T21:20:59.424Z,24.03
2018-07-16T21:23:28.441Z,25.83
2018-07-16T21:25:57.528Z,27.90
2018-07-16T21:28:26.700Z,36.30
2018-07-16T21:30:55.387Z,34.73
2018-07-16T21:33:24.700Z,26.60
2018-07-16T21:35:53.570Z,22.87
2018-07-16T21:38:22.292Z,24.03
2018-07-16T21:40:51.005Z,25.73
2018-07-16T21:43:20.414Z,27.10
2018-07-16T21:45:49.133Z,26.77
2018-07-16T21:48:18.202Z,27.13
2018-07-16T21:50:47.176Z,27.90
2018-07-16T21:53:16.093Z,30.33
2018-07-16T21:55:44.860Z,32.30
2018-07-16T21:58:13.583Z,30.70
2018-07-16T22:00:42.719Z,30.13
2018-07-16T22:03:12.295Z,31.60
2018-07-16T22:05:41.630Z,34.47
2018-07-16T22:08:10.493Z,34.93
2018-07-16T22:10:39.369Z,38.50
2018-07-16T22:13:08.383Z,65.10
2018-07-16T22:15:37.124Z,56.23
2018-07-16T22:18:06.015Z,74.43
2018-07-16T22:20:34.974Z,61.00
2018-07-16T22:23:03.835Z,52.90
2018-07-16T22:25:32.592Z,54.43
2018-07-16T22:28:01.412Z,55.70
2018-07-16T22:30:30.305Z,55.73
2018-07-16T22:32:59.058Z,54.00
2018-07-16T22:35:27.923Z,62.57
2018-07-16T22:37:56.695Z,60.37
2018-07-16T22:40:25.798Z,56.27
2018-07-16T22:42:55.070Z,55.83
2018-07-16T22:45:23.835Z,55.17
2018-07-16T22:47:52.600Z,54.20
2018-07-16T22:50:21.369Z,50.83
2018-07-16T22:52:50.145Z,53.57
2018-07-16T22:55:19.267Z,50.57
2018-07-16T22:57:48.289Z,47.43
2018-07-16T23:00:17.409Z,45.83
2018-07-16T23:02:46.296Z,45.23
2018-07-16T23:05:15.211Z,46.73
2018-07-16T23:07:43.960Z,48.87
2018-07-16T23:10:12.843Z,48.67
2018-07-16T23:12:41.657Z,47.57
2018-07-16T23:15:10.516Z,51.03
2018-07-16T23:17:39.194Z,47.40
2018-07-16T23:20:07.990Z,46.60
2018-07-16T23:22:50.811Z,48.20
2018-07-16T23:25:20.141Z,48.23
2018-07-16T23:27:49.344Z,45.37
2018-07-16T23:30:18.101Z,43.40
2018-07-16T23:32:46.969Z,44.43
2018-07-16T23:35:16.886Z,42.83
2018-07-16T23:37:45.653Z,42.57
2018-07-16T23:40:14.452Z,45.63
2018-07-16T23:42:43.162Z,45.70
2018-07-16T23:45:11.866Z,48.23
2018-07-16T23:47:40.601Z,44.07
2018-07-16T23:50:09.614Z,45.67
2018-07-16T23:52:38.390Z,46.63
2018-07-16T23:55:07.152Z,44.40
2018-07-16T23:57:35.922Z,44.33
